KDYL

Doylestown Airport

Doylestown, Pennsylvania, USA
METAR KDYL 180754Z AUTO 04003KT 10SM OVC007 01/M01 A3013 RMK AO2 SLP208 T00111011
Observed Flight Rules
Dec-18 @ 07:54 UTC (60 minutes ago) Instrument Flight Rules
Wind Visibility Clouds
40° at 3 knots 10 miles
  • Overcast at 700' AGL
Temperatures Readings
Current 1°C / 34°F
Dewpoint -1°C / 30°F
Humidity 87%
Altimeter 30.13" Hg
Pressure 1020.8 hPa
Elevation 117
METAR KDYL 180754Z AUTO 04003KT 10SM OVC007 01/M01 A3013 RMK AO2 SLP208 T00111011
Observed Flight Rules
Dec-18 @ 07:54 UTC
(60 minutes ago)
IFR
Wind Visibility
40° at 3 knots 10 miles
Clouds
  • Overcast at 700' AGL
Temperature Dewpoint
1°C / 34°F -1°C / 30°F
Humidity Altimeter Pressure
87% 30.13" Hg 1020.8 hPa